Flight Track Log - Related Links

Times and Time Zones

All times are in EDT time to prevent confusion due to time zone crossing. See the N110RF flight status page for this flight to view local times or setup timezone preferences in your user account.

Time Position Orientation Groundspeed Altitude Reporting Facility
EDT Latitude Longitude Course Direction KTS MPH feet Rate Location/Type
Wed 11:41:54 AM 41.0333 -73.7167 311° West 180 207 1,600  Level New York TRACON
Wed 11:42:53 AM 41.0667 -73.7667 312° West 182 209 3,200 1,200 Climbing New York TRACON
Wed 11:43:54 AM 41.1000 -73.8167 323° Northwest 197 227 4,000 397 Climbing New York TRACON
Wed 11:44:54 AM 41.1500 -73.8667 339° North 240 276 4,000  Level New York TRACON
Wed 11:45:54 AM 41.2167 -73.9000 323° Northwest 244 281 4,000  Level New York TRACON
Wed 11:46:54 AM 41.2667 -73.9500 217° Southwest 260 299 4,000 -151 Level New York TRACON
Wed 11:47:53 AM 41.2167 -74.0000 207° Southwest 233 268 3,700 -350 Descending New York TRACON
Wed 11:48:54 AM 41.1667 -74.0333 180° South 199 229 3,300 -347 Descending New York TRACON
Wed 11:49:54 AM 41.1167 -74.0333 194° South 195 224 3,000 -202 Descending New York TRACON
Wed 11:50:53 AM 41.0667 -74.0500 180° South 166 191 2,900 -300 Descending New York TRACON
Wed 11:51:54 AM 41.0167 -74.0500 180° South 154 177 2,400 -450 Descending New York TRACON
Wed 11:52:53 AM 40.9833 -74.0500 180° South 134 154 2,000 -250 Descending New York TRACON
Wed 11:53:54 AM 40.9500 -74.0500 180° South 118 136 1,900 -446 Descending New York TRACON
Wed 11:54:54 AM 40.9167 -74.0500 159° South 137 158 1,100 -650 Descending New York TRACON
Wed 11:55:54 AM 40.8833 -74.0333 217° Southwest 127 146 600 -400 Descending New York TRACON
Wed 11:56:54 AM 40.8500 -74.0667 16° North 123 142 300 -300 Descending New York TRACON
Wed 12:04:32 PM 41.2417 -73.9165 258° West  Level FlightAware Approximate
Wed 12:05:32 PM 41.2196 -74.0596 269° West  Level FlightAware Approximate
Wed 12:06:32 PM 41.2167 -74.2057 253° West  Level FlightAware Approximate
Wed 12:07:32 PM 41.1848 -74.3420 231° Southwest  Level FlightAware Approximate
Wed 12:08:32 PM 41.1153 -74.4555 135° Southeast  Level FlightAware Approximate
Wed 12:09:32 PM 41.0373 -74.3524 135° Southeast  Level FlightAware Approximate

Login

Don't have an account? Register now (free) for customized features, flight alerts, and more!